createdAt,value
2023-05-18T00:04:08.698Z,101741.72
2023-05-18T00:09:11.860Z,101747.84
2023-05-18T00:14:14.870Z,101758.84
2023-05-18T00:19:18.071Z,101764.22
2023-05-18T00:24:21.233Z,101770.53
2023-05-18T00:29:24.157Z,101773.56
2023-05-18T00:34:27.227Z,101782.47
2023-05-18T00:39:30.137Z,101791.72
2023-05-18T00:44:33.098Z,101801.50
2023-05-18T00:49:36.138Z,101789.63
2023-05-18T00:54:39.318Z,101807.25
2023-05-18T00:59:42.493Z,101800.44
2023-05-18T01:04:45.654Z,101815.53
2023-05-18T01:09:48.636Z,101826.75
2023-05-18T01:15:03.992Z,101830.72
2023-05-18T01:20:30.448Z,101818.81
2023-05-18T01:25:50.409Z,101823.56
2023-05-18T01:30:54.081Z,101821.44
2023-05-18T01:35:56.931Z,101832.13
2023-05-18T01:41:21.805Z,101837.59
2023-05-18T01:46:41.972Z,101844.97
2023-05-18T01:51:46.298Z,101847.47
2023-05-18T01:56:50.018Z,101852.63
2023-05-18T02:01:59.396Z,101851.97
2023-05-18T02:07:03.689Z,101867.50
2023-05-18T02:12:07.061Z,101883.00
2023-05-18T02:17:10.178Z,101892.03
2023-05-18T02:22:13.468Z,101893.75
2023-05-18T02:27:16.853Z,101891.47
2023-05-18T02:32:20.622Z,101910.41
2023-05-18T02:37:23.538Z,101906.41
2023-05-18T02:42:26.461Z,101924.31
2023-05-18T03:14:39.813Z,101926.78
2023-05-18T03:19:42.846Z,101923.00
2023-05-18T03:24:46.242Z,101932.94
2023-05-18T03:29:56.783Z,101927.31
2023-05-18T03:35:01.428Z,101923.78
2023-05-18T03:40:13.412Z,101918.81
2023-05-18T03:45:18.626Z,101924.28
2023-05-18T03:50:21.831Z,101933.69
2023-05-18T03:55:24.920Z,101920.09
2023-05-18T04:00:29.547Z,101926.41
2023-05-18T04:05:32.625Z,101917.13
2023-05-18T04:10:35.902Z,101929.09
2023-05-18T04:15:39.031Z,101930.16
2023-05-18T04:20:43.057Z,101922.31
2023-05-18T04:25:46.458Z,101925.22
2023-05-18T04:30:49.334Z,101924.84
2023-05-18T04:35:59.365Z,101911.53
2023-05-18T04:41:05.865Z,101914.50
2023-05-18T04:46:09.219Z,101918.88
2023-05-18T04:51:12.174Z,101918.09
2023-05-18T04:56:15.514Z,101919.16
2023-05-18T05:01:19.446Z,101908.38
2023-05-18T05:06:22.495Z,101909.94
2023-05-18T05:11:25.520Z,101908.63
2023-05-18T05:16:28.507Z,101908.84
2023-05-18T05:21:32.388Z,101913.50
2023-05-18T05:26:35.771Z,101906.16
2023-05-18T05:31:38.898Z,101901.69
2023-05-18T05:36:42.357Z,101896.25
2023-05-18T05:41:45.474Z,101896.66
2023-05-18T05:46:48.453Z,101905.25
2023-05-18T05:51:52.048Z,101904.63
2023-05-18T05:56:55.707Z,101896.16
2023-05-18T06:01:59.257Z,101891.22
2023-05-18T06:07:03.740Z,101878.19
2023-05-18T06:12:07.877Z,101879.28
2023-05-18T06:17:10.909Z,101888.56
2023-05-18T06:22:14.239Z,101873.88
2023-05-18T06:27:27.110Z,101875.34
2023-05-18T06:32:56.349Z,101856.91
2023-05-18T06:37:59.514Z,101874.75
2023-05-18T06:43:02.436Z,101857.34
2023-05-18T06:48:18.717Z,101864.13
2023-05-18T06:53:22.963Z,101856.25
2023-05-18T06:58:26.372Z,101848.25
2023-05-18T07:03:30.627Z,101845.50
2023-05-18T07:08:34.436Z,101839.97
2023-05-18T07:13:37.395Z,101845.03
2023-05-18T07:18:42.605Z,101838.94
2023-05-18T07:23:45.733Z,101822.13
2023-05-18T07:28:49.140Z,101827.06
2023-05-18T07:33:52.041Z,101837.75
2023-05-18T07:38:55.448Z,101830.66
2023-05-18T07:43:58.438Z,101817.19
2023-05-18T07:49:54.909Z,101815.69
2023-05-18T07:54:59.066Z,101814.81
2023-05-18T08:00:02.129Z,101816.78
2023-05-18T08:05:16.792Z,101815.38
2023-05-18T08:10:19.675Z,101819.69
2023-05-18T08:15:23.434Z,101805.59
2023-05-18T08:20:26.567Z,101803.84
2023-05-18T08:25:29.562Z,101802.34
2023-05-18T08:30:32.917Z,101801.78
2023-05-18T08:35:35.984Z,101802.16
2023-05-18T08:40:47.945Z,101794.81
2023-05-18T08:46:08.432Z,101792.41
2023-05-18T08:51:11.649Z,101810.72
2023-05-18T08:56:15.337Z,101803.34
2023-05-18T09:01:18.397Z,101796.53
2023-05-18T09:06:23.500Z,101795.88
2023-05-18T09:11:28.556Z,101800.06
2023-05-18T09:16:31.886Z,101792.13
2023-05-18T09:21:34.888Z,101792.44
2023-05-18T09:26:39.037Z,101789.63
2023-05-18T09:31:42.169Z,101797.28
2023-05-18T09:36:49.918Z,101799.47
2023-05-18T09:41:59.391Z,101812.00
2023-05-18T09:47:03.660Z,101801.53
2023-05-18T09:52:10.046Z,101795.94
2023-05-18T09:57:13.042Z,101794.84
2023-05-18T10:02:16.470Z,101818.38
2023-05-18T10:07:19.310Z,101798.78
2023-05-18T10:12:23.714Z,101799.13
2023-05-18T10:17:27.818Z,101789.09
2023-05-18T10:22:30.896Z,101799.28
2023-05-18T10:27:36.276Z,101785.56
2023-05-18T10:32:39.961Z,101781.81
2023-05-18T10:37:49.760Z,101777.13
2023-05-18T10:42:53.026Z,101772.84
2023-05-18T10:47:57.933Z,101795.84
2023-05-18T10:53:01.393Z,101778.69
2023-05-18T10:58:08.056Z,101777.16
2023-05-18T11:03:15.592Z,101769.81
2023-05-18T11:08:28.105Z,101772.09
2023-05-18T11:13:33.272Z,101762.66
2023-05-18T11:18:45.206Z,101767.09
2023-05-18T11:24:15.506Z,101771.09
2023-05-18T11:29:22.568Z,101764.53
2023-05-18T11:34:49.937Z,101776.53
2023-05-18T11:40:00.417Z,101762.19
2023-05-18T11:45:12.468Z,101761.81
2023-05-18T11:50:17.157Z,101756.69
2023-05-18T11:55:21.405Z,101758.66
2023-05-18T12:00:25.121Z,101763.03
2023-05-18T12:05:31.722Z,101772.44
2023-05-18T12:10:37.136Z,101763.81
2023-05-18T12:15:39.893Z,101760.53
2023-05-18T12:20:42.953Z,101760.16
2023-05-18T12:25:45.701Z,101756.56
2023-05-18T12:30:48.498Z,101744.44
2023-05-18T12:35:51.308Z,101745.34
2023-05-18T12:40:56.080Z,101747.59
2023-05-18T12:46:02.232Z,101754.03
2023-05-18T12:51:05.349Z,101759.84
2023-05-18T12:56:11.699Z,101759.44
2023-05-18T13:01:15.231Z,101745.22
2023-05-18T13:06:19.790Z,101750.59
2023-05-18T13:11:26.750Z,101731.13
2023-05-18T13:16:30.849Z,101738.28
2023-05-18T13:21:34.924Z,101740.91
2023-05-18T13:26:37.788Z,101749.41
2023-05-18T13:31:41.321Z,101746.78
2023-05-18T13:36:44.258Z,101739.78
2023-05-18T13:41:47.002Z,101741.41
2023-05-18T13:46:49.835Z,101756.44
2023-05-18T13:51:53.725Z,101765.28
2023-05-18T13:56:56.515Z,101775.94
2023-05-18T14:01:59.341Z,101776.41
2023-05-18T14:07:02.727Z,101773.66
2023-05-18T14:12:06.246Z,101776.53
2023-05-18T14:17:11.397Z,101787.69
2023-05-18T14:22:14.446Z,101796.44
2023-05-18T14:27:17.375Z,101797.72
2023-05-18T14:32:21.462Z,101804.88
2023-05-18T14:37:24.376Z,101802.81
2023-05-18T14:42:27.201Z,101826.91
2023-05-18T14:47:30.000Z,101825.84
2023-05-18T14:52:32.972Z,101830.69
2023-05-18T14:57:35.882Z,101833.03
2023-05-18T15:02:38.791Z,101840.53
2023-05-18T15:07:41.612Z,101837.03
2023-05-18T15:12:44.398Z,101842.16
2023-05-18T15:17:47.384Z,101847.19
2023-05-18T15:22:51.176Z,101854.88
2023-05-18T15:27:54.102Z,101854.38
2023-05-18T15:32:58.068Z,101864.59
2023-05-18T15:38:00.923Z,101859.09
2023-05-18T15:43:03.859Z,101869.09
2023-05-18T15:48:07.054Z,101874.47
2023-05-18T15:53:09.869Z,101864.53
2023-05-18T15:58:13.918Z,101879.13
2023-05-18T16:03:17.726Z,101872.00
2023-05-18T16:08:23.655Z,101871.47
2023-05-18T16:13:27.719Z,101877.50
2023-05-18T16:18:30.490Z,101871.34
2023-05-18T16:23:33.453Z,101884.56
2023-05-18T16:28:36.550Z,101879.41
2023-05-18T16:33:39.727Z,101880.88
2023-05-18T16:38:42.594Z,101889.09
2023-05-18T16:43:45.520Z,101903.38
2023-05-18T16:48:48.274Z,101906.13
2023-05-18T16:53:52.793Z,101897.13
2023-05-18T16:58:55.626Z,101893.03
2023-05-18T17:03:58.801Z,101898.16
2023-05-18T17:09:02.655Z,101896.72
2023-05-18T17:14:06.384Z,101897.50
2023-05-18T17:19:09.242Z,101894.16
2023-05-18T17:24:12.156Z,101889.84
2023-05-18T17:29:17.191Z,101887.66
2023-05-18T17:34:21.954Z,101897.75
2023-05-18T17:39:25.466Z,101898.09
2023-05-18T17:44:28.307Z,101905.53
2023-05-18T17:49:32.837Z,101911.38
2023-05-18T17:54:35.907Z,101906.88
2023-05-18T17:59:38.849Z,101916.78
2023-05-18T18:04:41.787Z,101917.78
2023-05-18T18:09:44.681Z,101913.75
2023-05-18T18:14:47.606Z,101921.69
2023-05-18T18:19:51.042Z,101918.38
2023-05-18T18:24:53.849Z,101910.91
2023-05-18T18:29:56.990Z,101914.38
2023-05-18T18:34:59.912Z,101914.06
2023-05-18T18:40:02.953Z,101914.25
2023-05-18T18:45:07.592Z,101922.22
2023-05-18T18:50:10.754Z,101919.78
2023-05-18T18:55:13.946Z,101925.97
2023-05-18T19:00:20.513Z,101926.63
2023-05-18T19:05:24.954Z,101911.66
2023-05-18T19:10:28.207Z,101922.13
2023-05-18T19:15:32.153Z,101926.19
2023-05-18T19:20:35.398Z,101928.94
2023-05-18T19:25:38.479Z,101942.50
2023-05-18T19:30:41.650Z,101951.09
2023-05-18T19:35:44.686Z,101944.38
2023-05-18T19:40:47.659Z,101955.44
2023-05-18T19:45:50.610Z,101959.09
2023-05-18T19:50:53.678Z,101945.13
2023-05-18T19:56:02.907Z,101951.00
2023-05-18T20:01:05.800Z,101949.19
2023-05-18T20:06:08.785Z,101950.16
2023-05-18T20:11:12.360Z,101954.13
2023-05-18T20:16:15.330Z,101952.91
2023-05-18T20:21:19.317Z,101950.78
2023-05-18T20:26:23.238Z,101944.44
2023-05-18T20:31:26.275Z,101960.44
2023-05-18T20:36:30.246Z,101962.38
2023-05-18T20:41:33.239Z,101965.34
2023-05-18T20:46:38.034Z,101970.16
2023-05-18T20:51:41.056Z,101969.94
2023-05-18T20:56:44.542Z,101971.59
2023-05-18T21:01:48.474Z,101963.66
2023-05-18T21:06:51.478Z,101964.41
2023-05-18T21:11:54.893Z,101967.47
2023-05-18T21:16:58.123Z,101965.94
2023-05-18T21:22:02.275Z,101969.75
2023-05-18T21:27:06.173Z,101979.06
2023-05-18T21:32:09.564Z,101983.25
2023-05-18T21:37:12.767Z,101978.56
2023-05-18T21:42:15.690Z,101977.44
2023-05-18T21:47:18.688Z,101983.50
2023-05-18T21:52:21.669Z,101979.09
2023-05-18T21:57:25.104Z,101971.50
2023-05-18T22:02:28.188Z,101973.38
2023-05-18T22:07:31.638Z,101971.09
2023-05-18T22:12:34.524Z,101969.09
2023-05-18T22:17:37.782Z,101977.81
2023-05-18T22:22:41.569Z,101987.41
2023-05-18T22:27:44.879Z,101985.13
2023-05-18T22:32:48.049Z,101981.34
2023-05-18T22:37:51.127Z,101990.03
2023-05-18T22:42:55.439Z,101996.09
2023-05-18T22:47:58.656Z,102004.41
2023-05-18T22:53:02.745Z,102016.03
2023-05-18T22:58:05.706Z,102024.88
2023-05-18T23:03:08.811Z,102018.78
2023-05-18T23:08:11.911Z,102020.28
2023-05-18T23:13:17.485Z,102012.56
2023-05-18T23:18:20.434Z,102011.78
2023-05-18T23:23:29.021Z,102015.47
2023-05-18T23:28:31.973Z,102018.69
2023-05-18T23:33:36.863Z,102006.00
2023-05-18T23:38:41.380Z,102001.09
2023-05-18T23:43:44.834Z,102004.47
2023-05-18T23:48:49.559Z,102010.38
2023-05-18T23:53:52.699Z,102007.75
2023-05-18T23:58:55.837Z,101999.88
